sensor_id;sensor_type;location;lat;lon;timestamp;P1;durP1;ratioP1;P2;durP2;ratioP2
46415;SDS011;32620;51.704;7.822;2023-05-10T00:01:29;29.42;;;18.25;;
46415;SDS011;32620;51.704;7.822;2023-05-10T00:03:54;34.08;;;17.48;;
46415;SDS011;32620;51.704;7.822;2023-05-10T00:06:20;32.03;;;17.95;;
46415;SDS011;32620;51.704;7.822;2023-05-10T00:08:45;38.50;;;18.55;;
46415;SDS011;32620;51.704;7.822;2023-05-10T00:11:11;43.17;;;20.42;;
46415;SDS011;32620;51.704;7.822;2023-05-10T00:13:36;48.75;;;23.65;;
46415;SDS011;32620;51.704;7.822;2023-05-10T00:16:02;62.08;;;27.45;;
46415;SDS011;32620;51.704;7.822;2023-05-10T00:18:28;65.10;;;28.92;;
46415;SDS011;32620;51.704;7.822;2023-05-10T00:20:53;63.58;;;28.33;;
46415;SDS011;32620;51.704;7.822;2023-05-10T00:23:19;84.40;;;36.15;;
46415;SDS011;32620;51.704;7.822;2023-05-10T00:25:44;94.47;;;38.83;;
46415;SDS011;32620;51.704;7.822;2023-05-10T00:28:10;108.45;;;43.92;;
46415;SDS011;32620;51.704;7.822;2023-05-10T00:30:35;113.70;;;45.70;;
46415;SDS011;32620;51.704;7.822;2023-05-10T00:33:01;121.70;;;46.75;;
46415;SDS011;32620;51.704;7.822;2023-05-10T00:35:26;112.35;;;44.85;;
46415;SDS011;32620;51.704;7.822;2023-05-10T00:37:52;100.93;;;40.88;;
46415;SDS011;32620;51.704;7.822;2023-05-10T00:40:17;84.75;;;34.17;;
46415;SDS011;32620;51.704;7.822;2023-05-10T00:42:43;70.95;;;31.10;;
46415;SDS011;32620;51.704;7.822;2023-05-10T00:45:08;59.75;;;25.25;;
46415;SDS011;32620;51.704;7.822;2023-05-10T00:47:34;49.28;;;22.30;;
46415;SDS011;32620;51.704;7.822;2023-05-10T00:50:00;39.03;;;19.60;;
46415;SDS011;32620;51.704;7.822;2023-05-10T00:52:26;36.33;;;18.77;;
46415;SDS011;32620;51.704;7.822;2023-05-10T00:54:53;32.15;;;17.55;;
46415;SDS011;32620;51.704;7.822;2023-05-10T00:57:19;26.20;;;15.68;;
46415;SDS011;32620;51.704;7.822;2023-05-10T00:59:45;31.50;;;17.08;;
46415;SDS011;32620;51.704;7.822;2023-05-10T01:02:11;28.15;;;16.63;;
46415;SDS011;32620;51.704;7.822;2023-05-10T01:04:38;26.30;;;15.93;;
46415;SDS011;32620;51.704;7.822;2023-05-10T01:07:04;28.10;;;16.83;;
46415;SDS011;32620;51.704;7.822;2023-05-10T01:09:30;28.70;;;17.05;;
46415;SDS011;32620;51.704;7.822;2023-05-10T01:11:55;29.35;;;17.13;;
46415;SDS011;32620;51.704;7.822;2023-05-10T01:14:21;30.42;;;17.65;;
46415;SDS011;32620;51.704;7.822;2023-05-10T01:16:48;27.25;;;16.75;;
46415;SDS011;32620;51.704;7.822;2023-05-10T01:19:18;27.35;;;17.67;;
46415;SDS011;32620;51.704;7.822;2023-05-10T01:25:00;25.70;;;16.38;;
46415;SDS011;32620;51.704;7.822;2023-05-10T01:31:17;22.95;;;14.52;;
46415;SDS011;32620;51.704;7.822;2023-05-10T01:34:16;22.52;;;15.25;;
46415;SDS011;32620;51.704;7.822;2023-05-10T01:36:35;23.90;;;14.88;;
46415;SDS011;32620;51.704;7.822;2023-05-10T01:39:28;22.80;;;15.13;;
46415;SDS011;32620;51.704;7.822;2023-05-10T01:42:17;25.65;;;15.90;;
46415;SDS011;32620;51.704;7.822;2023-05-10T01:47:54;27.02;;;15.25;;
46415;SDS011;32620;51.704;7.822;2023-05-10T01:50:31;26.60;;;16.02;;
46415;SDS011;32620;51.704;7.822;2023-05-10T01:52:59;22.95;;;15.02;;
46415;SDS011;32620;51.704;7.822;2023-05-10T01:55:28;22.42;;;13.70;;
46415;SDS011;32620;51.704;7.822;2023-05-10T01:58:02;24.90;;;14.52;;
46415;SDS011;32620;51.704;7.822;2023-05-10T02:00:33;24.30;;;14.10;;
46415;SDS011;32620;51.704;7.822;2023-05-10T02:03:00;24.08;;;13.02;;
46415;SDS011;32620;51.704;7.822;2023-05-10T02:05:30;25.30;;;13.70;;
46415;SDS011;32620;51.704;7.822;2023-05-10T02:07:58;25.85;;;14.05;;
46415;SDS011;32620;51.704;7.822;2023-05-10T02:10:26;27.98;;;13.88;;
46415;SDS011;32620;51.704;7.822;2023-05-10T02:12:53;25.05;;;13.43;;
46415;SDS011;32620;51.704;7.822;2023-05-10T02:15:23;25.08;;;13.10;;
46415;SDS011;32620;51.704;7.822;2023-05-10T02:17:51;26.17;;;12.93;;
46415;SDS011;32620;51.704;7.822;2023-05-10T02:20:19;22.75;;;12.38;;
46415;SDS011;32620;51.704;7.822;2023-05-10T02:22:46;22.95;;;12.25;;
46415;SDS011;32620;51.704;7.822;2023-05-10T02:25:13;21.23;;;11.40;;
46415;SDS011;32620;51.704;7.822;2023-05-10T02:27:40;25.17;;;12.60;;
46415;SDS011;32620;51.704;7.822;2023-05-10T02:30:11;22.40;;;11.68;;
46415;SDS011;32620;51.704;7.822;2023-05-10T02:32:37;23.20;;;11.77;;
46415;SDS011;32620;51.704;7.822;2023-05-10T02:35:04;18.50;;;9.85;;
46415;SDS011;32620;51.704;7.822;2023-05-10T02:37:31;20.58;;;10.88;;
46415;SDS011;32620;51.704;7.822;2023-05-10T02:39:58;18.88;;;9.48;;
46415;SDS011;32620;51.704;7.822;2023-05-10T02:42:24;13.80;;;7.72;;
46415;SDS011;32620;51.704;7.822;2023-05-10T02:44:52;10.90;;;6.70;;
46415;SDS011;32620;51.704;7.822;2023-05-10T02:47:24;11.17;;;6.83;;
46415;SDS011;32620;51.704;7.822;2023-05-10T02:49:50;11.75;;;6.25;;
46415;SDS011;32620;51.704;7.822;2023-05-10T02:52:17;8.20;;;4.93;;
46415;SDS011;32620;51.704;7.822;2023-05-10T02:54:49;7.00;;;4.40;;
46415;SDS011;32620;51.704;7.822;2023-05-10T02:57:17;9.45;;;4.60;;
46415;SDS011;32620;51.704;7.822;2023-05-10T02:59:49;6.63;;;4.30;;
46415;SDS011;32620;51.704;7.822;2023-05-10T03:02:15;9.30;;;5.07;;
46415;SDS011;32620;51.704;7.822;2023-05-10T03:04:41;7.05;;;4.43;;
46415;SDS011;32620;51.704;7.822;2023-05-10T03:07:07;5.13;;;3.88;;
46415;SDS011;32620;51.704;7.822;2023-05-10T03:09:33;7.60;;;4.25;;
46415;SDS011;32620;51.704;7.822;2023-05-10T03:12:15;6.85;;;3.75;;
46415;SDS011;32620;51.704;7.822;2023-05-10T03:20:29;6.63;;;4.05;;
46415;SDS011;32620;51.704;7.822;2023-05-10T03:23:01;8.95;;;4.38;;
46415;SDS011;32620;51.704;7.822;2023-05-10T03:25:29;5.47;;;4.30;;
46415;SDS011;32620;51.704;7.822;2023-05-10T03:27:56;7.57;;;4.82;;
46415;SDS011;32620;51.704;7.822;2023-05-10T03:30:22;7.18;;;4.55;;
46415;SDS011;32620;51.704;7.822;2023-05-10T03:32:49;7.13;;;5.20;;
46415;SDS011;32620;51.704;7.822;2023-05-10T03:35:15;5.90;;;4.68;;
46415;SDS011;32620;51.704;7.822;2023-05-10T03:37:41;5.07;;;4.40;;
46415;SDS011;32620;51.704;7.822;2023-05-10T03:40:06;7.65;;;5.00;;
46415;SDS011;32620;51.704;7.822;2023-05-10T03:42:33;7.05;;;6.05;;
46415;SDS011;32620;51.704;7.822;2023-05-10T03:44:58;6.47;;;5.30;;
46415;SDS011;32620;51.704;7.822;2023-05-10T03:47:24;7.25;;;4.70;;
46415;SDS011;32620;51.704;7.822;2023-05-10T03:49:49;7.28;;;4.30;;
46415;SDS011;32620;51.704;7.822;2023-05-10T03:52:15;7.57;;;4.35;;
46415;SDS011;32620;51.704;7.822;2023-05-10T03:54:40;7.10;;;4.60;;
46415;SDS011;32620;51.704;7.822;2023-05-10T03:57:06;9.18;;;4.72;;
46415;SDS011;32620;51.704;7.822;2023-05-10T03:59:31;6.85;;;4.55;;
46415;SDS011;32620;51.704;7.822;2023-05-10T04:01:57;8.95;;;4.90;;
46415;SDS011;32620;51.704;7.822;2023-05-10T04:04:23;8.38;;;4.65;;
46415;SDS011;32620;51.704;7.822;2023-05-10T04:06:48;9.75;;;5.68;;
46415;SDS011;32620;51.704;7.822;2023-05-10T04:09:14;9.63;;;6.03;;
46415;SDS011;32620;51.704;7.822;2023-05-10T04:11:40;12.88;;;6.90;;
46415;SDS011;32620;51.704;7.822;2023-05-10T04:14:05;11.80;;;6.50;;
46415;SDS011;32620;51.704;7.822;2023-05-10T04:16:31;10.10;;;5.95;;
46415;SDS011;32620;51.704;7.822;2023-05-10T04:18:56;10.27;;;6.13;;
46415;SDS011;32620;51.704;7.822;2023-05-10T04:21:22;9.02;;;6.40;;
46415;SDS011;32620;51.704;7.822;2023-05-10T04:23:47;11.40;;;6.15;;
46415;SDS011;32620;51.704;7.822;2023-05-10T04:26:13;12.68;;;6.53;;
46415;SDS011;32620;51.704;7.822;2023-05-10T04:28:38;11.07;;;7.00;;
46415;SDS011;32620;51.704;7.822;2023-05-10T04:31:05;9.35;;;6.72;;
46415;SDS011;32620;51.704;7.822;2023-05-10T04:33:32;11.30;;;6.82;;
46415;SDS011;32620;51.704;7.822;2023-05-10T04:35:58;11.90;;;7.15;;
46415;SDS011;32620;51.704;7.822;2023-05-10T04:38:23;13.13;;;7.97;;
46415;SDS011;32620;51.704;7.822;2023-05-10T04:40:49;11.93;;;7.40;;
46415;SDS011;32620;51.704;7.822;2023-05-10T04:43:15;14.32;;;8.38;;
46415;SDS011;32620;51.704;7.822;2023-05-10T04:45:40;11.32;;;7.28;;
46415;SDS011;32620;51.704;7.822;2023-05-10T04:48:06;13.77;;;7.70;;
46415;SDS011;32620;51.704;7.822;2023-05-10T04:50:32;13.98;;;7.43;;
46415;SDS011;32620;51.704;7.822;2023-05-10T04:52:58;14.50;;;7.07;;
46415;SDS011;32620;51.704;7.822;2023-05-10T04:55:23;12.05;;;7.53;;
46415;SDS011;32620;51.704;7.822;2023-05-10T04:57:49;13.00;;;7.70;;
46415;SDS011;32620;51.704;7.822;2023-05-10T05:00:15;12.48;;;6.75;;
46415;SDS011;32620;51.704;7.822;2023-05-10T05:02:42;13.13;;;7.60;;
46415;SDS011;32620;51.704;7.822;2023-05-10T05:05:10;14.02;;;7.18;;
46415;SDS011;32620;51.704;7.822;2023-05-10T05:07:37;11.20;;;7.03;;
46415;SDS011;32620;51.704;7.822;2023-05-10T05:10:03;13.90;;;7.47;;
46415;SDS011;32620;51.704;7.822;2023-05-10T05:12:31;12.40;;;7.55;;
46415;SDS011;32620;51.704;7.822;2023-05-10T05:14:56;15.13;;;8.10;;
46415;SDS011;32620;51.704;7.822;2023-05-10T05:17:22;14.65;;;8.18;;
46415;SDS011;32620;51.704;7.822;2023-05-10T05:19:47;16.33;;;8.88;;
46415;SDS011;32620;51.704;7.822;2023-05-10T05:22:13;17.38;;;9.60;;
46415;SDS011;32620;51.704;7.822;2023-05-10T05:24:38;21.30;;;10.90;;
46415;SDS011;32620;51.704;7.822;2023-05-10T05:27:04;20.85;;;11.18;;
46415;SDS011;32620;51.704;7.822;2023-05-10T05:29:30;19.77;;;11.32;;
46415;SDS011;32620;51.704;7.822;2023-05-10T05:31:56;24.65;;;12.85;;
46415;SDS011;32620;51.704;7.822;2023-05-10T05:34:22;27.15;;;13.65;;
46415;SDS011;32620;51.704;7.822;2023-05-10T05:36:47;29.38;;;14.32;;
46415;SDS011;32620;51.704;7.822;2023-05-10T05:39:13;36.10;;;15.68;;
46415;SDS011;32620;51.704;7.822;2023-05-10T05:41:38;32.88;;;16.08;;
46415;SDS011;32620;51.704;7.822;2023-05-10T05:44:04;33.92;;;17.55;;
46415;SDS011;32620;51.704;7.822;2023-05-10T05:46:30;42.17;;;18.63;;
46415;SDS011;32620;51.704;7.822;2023-05-10T05:48:55;38.65;;;18.73;;
46415;SDS011;32620;51.704;7.822;2023-05-10T05:51:21;39.58;;;20.67;;
46415;SDS011;32620;51.704;7.822;2023-05-10T05:53:47;38.42;;;19.85;;
46415;SDS011;32620;51.704;7.822;2023-05-10T05:56:12;47.47;;;22.13;;
46415;SDS011;32620;51.704;7.822;2023-05-10T05:58:38;44.88;;;20.88;;
46415;SDS011;32620;51.704;7.822;2023-05-10T06:01:03;45.28;;;23.80;;
46415;SDS011;32620;51.704;7.822;2023-05-10T06:03:29;48.65;;;26.17;;
46415;SDS011;32620;51.704;7.822;2023-05-10T06:05:54;51.45;;;26.40;;
46415;SDS011;32620;51.704;7.822;2023-05-10T06:08:20;58.03;;;27.88;;
46415;SDS011;32620;51.704;7.822;2023-05-10T06:10:45;63.05;;;29.92;;
46415;SDS011;32620;51.704;7.822;2023-05-10T06:13:11;61.50;;;30.15;;
46415;SDS011;32620;51.704;7.822;2023-05-10T06:15:37;68.45;;;35.25;;
46415;SDS011;32620;51.704;7.822;2023-05-10T06:18:03;75.40;;;37.63;;
46415;SDS011;32620;51.704;7.822;2023-05-10T06:20:29;80.50;;;37.47;;
46415;SDS011;32620;51.704;7.822;2023-05-10T06:22:56;80.88;;;40.55;;
46415;SDS011;32620;51.704;7.822;2023-05-10T06:25:22;82.38;;;39.78;;
46415;SDS011;32620;51.704;7.822;2023-05-10T06:27:48;85.00;;;40.58;;
46415;SDS011;32620;51.704;7.822;2023-05-10T06:30:13;83.60;;;39.47;;
46415;SDS011;32620;51.704;7.822;2023-05-10T06:32:40;87.32;;;41.40;;
46415;SDS011;32620;51.704;7.822;2023-05-10T06:35:06;99.68;;;45.10;;
46415;SDS011;32620;51.704;7.822;2023-05-10T06:37:32;101.28;;;46.28;;
46415;SDS011;32620;51.704;7.822;2023-05-10T06:39:57;100.25;;;45.45;;
46415;SDS011;32620;51.704;7.822;2023-05-10T06:42:23;98.03;;;43.78;;
46415;SDS011;32620;51.704;7.822;2023-05-10T06:44:50;109.82;;;46.90;;
46415;SDS011;32620;51.704;7.822;2023-05-10T06:47:15;101.05;;;44.78;;
46415;SDS011;32620;51.704;7.822;2023-05-10T06:49:42;99.00;;;45.38;;
46415;SDS011;32620;51.704;7.822;2023-05-10T06:52:07;105.18;;;45.65;;
46415;SDS011;32620;51.704;7.822;2023-05-10T06:54:33;103.18;;;45.13;;
46415;SDS011;32620;51.704;7.822;2023-05-10T06:56:58;102.38;;;45.00;;
46415;SDS011;32620;51.704;7.822;2023-05-10T06:59:24;99.50;;;44.30;;
46415;SDS011;32620;51.704;7.822;2023-05-10T07:01:50;105.13;;;46.58;;
46415;SDS011;32620;51.704;7.822;2023-05-10T07:04:16;101.43;;;47.13;;
46415;SDS011;32620;51.704;7.822;2023-05-10T07:06:42;100.28;;;45.05;;
46415;SDS011;32620;51.704;7.822;2023-05-10T07:09:08;98.18;;;45.30;;
46415;SDS011;32620;51.704;7.822;2023-05-10T07:11:33;101.63;;;46.13;;
46415;SDS011;32620;51.704;7.822;2023-05-10T07:13:59;95.63;;;44.05;;
46415;SDS011;32620;51.704;7.822;2023-05-10T07:16:25;99.80;;;46.38;;
46415;SDS011;32620;51.704;7.822;2023-05-10T07:18:50;93.60;;;43.63;;
46415;SDS011;32620;51.704;7.822;2023-05-10T07:21:17;97.13;;;47.35;;
46415;SDS011;32620;51.704;7.822;2023-05-10T07:23:43;93.72;;;45.22;;
46415;SDS011;32620;51.704;7.822;2023-05-10T07:26:09;87.80;;;43.55;;
46415;SDS011;32620;51.704;7.822;2023-05-10T07:28:34;93.90;;;43.53;;
46415;SDS011;32620;51.704;7.822;2023-05-10T07:31:02;82.25;;;40.95;;
46415;SDS011;32620;51.704;7.822;2023-05-10T07:33:27;79.72;;;39.58;;
46415;SDS011;32620;51.704;7.822;2023-05-10T07:35:53;80.60;;;40.63;;
46415;SDS011;32620;51.704;7.822;2023-05-10T07:38:19;78.78;;;41.40;;
46415;SDS011;32620;51.704;7.822;2023-05-10T07:40:44;72.90;;;38.25;;
46415;SDS011;32620;51.704;7.822;2023-05-10T07:43:10;76.57;;;40.13;;
46415;SDS011;32620;51.704;7.822;2023-05-10T07:45:35;72.13;;;37.50;;
46415;SDS011;32620;51.704;7.822;2023-05-10T07:48:01;70.40;;;36.13;;
46415;SDS011;32620;51.704;7.822;2023-05-10T07:50:26;62.65;;;35.20;;
46415;SDS011;32620;51.704;7.822;2023-05-10T07:52:52;57.47;;;32.72;;
46415;SDS011;32620;51.704;7.822;2023-05-10T07:55:18;53.63;;;32.25;;
46415;SDS011;32620;51.704;7.822;2023-05-10T07:57:44;51.25;;;30.90;;
46415;SDS011;32620;51.704;7.822;2023-05-10T08:00:12;48.97;;;30.88;;
46415;SDS011;32620;51.704;7.822;2023-05-10T08:02:38;47.67;;;30.67;;
46415;SDS011;32620;51.704;7.822;2023-05-10T08:05:04;50.40;;;30.55;;
46415;SDS011;32620;51.704;7.822;2023-05-10T08:07:30;44.35;;;28.42;;
46415;SDS011;32620;51.704;7.822;2023-05-10T08:09:56;47.85;;;28.35;;
46415;SDS011;32620;51.704;7.822;2023-05-10T08:12:21;45.92;;;27.65;;
46415;SDS011;32620;51.704;7.822;2023-05-10T08:14:47;44.15;;;27.33;;
46415;SDS011;32620;51.704;7.822;2023-05-10T08:17:12;39.88;;;25.85;;
46415;SDS011;32620;51.704;7.822;2023-05-10T08:19:38;39.20;;;24.77;;
46415;SDS011;32620;51.704;7.822;2023-05-10T08:22:03;43.33;;;25.50;;
46415;SDS011;32620;51.704;7.822;2023-05-10T08:24:29;38.25;;;24.70;;
46415;SDS011;32620;51.704;7.822;2023-05-10T08:26:55;40.83;;;25.58;;
46415;SDS011;32620;51.704;7.822;2023-05-10T08:29:20;44.85;;;25.88;;
46415;SDS011;32620;51.704;7.822;2023-05-10T08:31:46;39.63;;;25.00;;
46415;SDS011;32620;51.704;7.822;2023-05-10T08:34:11;42.20;;;25.77;;
46415;SDS011;32620;51.704;7.822;2023-05-10T08:36:37;37.35;;;24.65;;
46415;SDS011;32620;51.704;7.822;2023-05-10T08:39:02;37.47;;;24.23;;
46415;SDS011;32620;51.704;7.822;2023-05-10T08:41:28;40.25;;;24.48;;
46415;SDS011;32620;51.704;7.822;2023-05-10T08:43:58;39.25;;;23.40;;
46415;SDS011;32620;51.704;7.822;2023-05-10T08:46:27;39.58;;;24.65;;
46415;SDS011;32620;51.704;7.822;2023-05-10T08:48:53;36.38;;;23.90;;
46415;SDS011;32620;51.704;7.822;2023-05-10T08:51:21;37.40;;;24.63;;
46415;SDS011;32620;51.704;7.822;2023-05-10T08:53:51;36.53;;;24.45;;
46415;SDS011;32620;51.704;7.822;2023-05-10T08:56:17;38.35;;;25.25;;
46415;SDS011;32620;51.704;7.822;2023-05-10T08:58:43;38.78;;;25.98;;
46415;SDS011;32620;51.704;7.822;2023-05-10T09:01:08;34.60;;;25.02;;
46415;SDS011;32620;51.704;7.822;2023-05-10T09:03:35;34.63;;;24.95;;
46415;SDS011;32620;51.704;7.822;2023-05-10T09:06:03;36.90;;;26.67;;
46415;SDS011;32620;51.704;7.822;2023-05-10T09:08:29;39.30;;;26.40;;
46415;SDS011;32620;51.704;7.822;2023-05-10T09:10:56;39.95;;;27.83;;
46415;SDS011;32620;51.704;7.822;2023-05-10T09:13:22;41.60;;;26.88;;
46415;SDS011;32620;51.704;7.822;2023-05-10T09:15:48;40.47;;;27.92;;
46415;SDS011;32620;51.704;7.822;2023-05-10T09:18:14;45.15;;;29.27;;
46415;SDS011;32620;51.704;7.822;2023-05-10T09:20:40;37.90;;;26.25;;
46415;SDS011;32620;51.704;7.822;2023-05-10T09:23:06;32.60;;;22.98;;
46415;SDS011;32620;51.704;7.822;2023-05-10T09:25:32;33.10;;;24.83;;
46415;SDS011;32620;51.704;7.822;2023-05-10T09:27:58;27.98;;;22.45;;
46415;SDS011;32620;51.704;7.822;2023-05-10T09:30:28;30.10;;;22.05;;
46415;SDS011;32620;51.704;7.822;2023-05-10T09:32:55;32.72;;;22.83;;
46415;SDS011;32620;51.704;7.822;2023-05-10T09:35:23;32.90;;;22.98;;
46415;SDS011;32620;51.704;7.822;2023-05-10T09:37:50;29.73;;;21.70;;
46415;SDS011;32620;51.704;7.822;2023-05-10T09:40:19;30.33;;;24.13;;
46415;SDS011;32620;51.704;7.822;2023-05-10T09:45:31;35.25;;;24.85;;
46415;SDS011;32620;51.704;7.822;2023-05-10T09:47:58;41.63;;;28.40;;
46415;SDS011;32620;51.704;7.822;2023-05-10T09:50:25;47.22;;;33.05;;
46415;SDS011;32620;51.704;7.822;2023-05-10T09:52:52;55.97;;;37.25;;
46415;SDS011;32620;51.704;7.822;2023-05-10T09:55:21;44.22;;;33.50;;
46415;SDS011;32620;51.704;7.822;2023-05-10T09:57:48;46.67;;;33.40;;
46415;SDS011;32620;51.704;7.822;2023-05-10T10:00:23;51.65;;;34.80;;
46415;SDS011;32620;51.704;7.822;2023-05-10T10:02:54;46.22;;;30.48;;
46415;SDS011;32620;51.704;7.822;2023-05-10T10:05:21;45.83;;;31.38;;
46415;SDS011;32620;51.704;7.822;2023-05-10T10:07:53;42.28;;;27.65;;
46415;SDS011;32620;51.704;7.822;2023-05-10T10:10:20;47.63;;;30.95;;
46415;SDS011;32620;51.704;7.822;2023-05-10T10:12:45;50.20;;;32.13;;
46415;SDS011;32620;51.704;7.822;2023-05-10T10:15:11;44.97;;;30.30;;
46415;SDS011;32620;51.704;7.822;2023-05-10T10:17:37;47.00;;;31.00;;
46415;SDS011;32620;51.704;7.822;2023-05-10T10:20:04;47.75;;;31.35;;
46415;SDS011;32620;51.704;7.822;2023-05-10T10:22:30;45.95;;;29.92;;
46415;SDS011;32620;51.704;7.822;2023-05-10T10:24:55;41.25;;;28.50;;
46415;SDS011;32620;51.704;7.822;2023-05-10T10:27:28;47.28;;;30.73;;
46415;SDS011;32620;51.704;7.822;2023-05-10T10:30:13;45.47;;;28.65;;
46415;SDS011;32620;51.704;7.822;2023-05-10T10:35:50;45.78;;;29.50;;
46415;SDS011;32620;51.704;7.822;2023-05-10T10:38:18;43.65;;;29.63;;
46415;SDS011;32620;51.704;7.822;2023-05-10T10:40:43;48.00;;;32.08;;
46415;SDS011;32620;51.704;7.822;2023-05-10T10:43:21;47.47;;;30.85;;
46415;SDS011;32620;51.704;7.822;2023-05-10T10:46:20;48.78;;;32.85;;
46415;SDS011;32620;51.704;7.822;2023-05-10T10:48:37;50.33;;;34.25;;
46415;SDS011;32620;51.704;7.822;2023-05-10T10:51:03;49.85;;;33.05;;
46415;SDS011;32620;51.704;7.822;2023-05-10T10:53:29;52.38;;;34.80;;
46415;SDS011;32620;51.704;7.822;2023-05-10T10:56:11;56.95;;;37.45;;
46415;SDS011;32620;51.704;7.822;2023-05-10T10:58:39;62.70;;;41.47;;
46415;SDS011;32620;51.704;7.822;2023-05-10T11:01:10;58.35;;;39.42;;
46415;SDS011;32620;51.704;7.822;2023-05-10T11:03:41;63.05;;;42.13;;
46415;SDS011;32620;51.704;7.822;2023-05-10T11:06:30;68.70;;;44.35;;
46415;SDS011;32620;51.704;7.822;2023-05-10T11:08:57;69.35;;;43.08;;
46415;SDS011;32620;51.704;7.822;2023-05-10T11:11:23;62.58;;;42.65;;
46415;SDS011;32620;51.704;7.822;2023-05-10T11:13:48;66.28;;;38.85;;
46415;SDS011;32620;51.704;7.822;2023-05-10T11:16:18;54.80;;;36.63;;
46415;SDS011;32620;51.704;7.822;2023-05-10T11:19:16;51.30;;;33.60;;
46415;SDS011;32620;51.704;7.822;2023-05-10T11:21:33;43.30;;;28.80;;
46415;SDS011;32620;51.704;7.822;2023-05-10T11:23:59;37.10;;;25.35;;
46415;SDS011;32620;51.704;7.822;2023-05-10T11:26:30;41.10;;;25.88;;
46415;SDS011;32620;51.704;7.822;2023-05-10T11:28:57;37.35;;;24.88;;
46415;SDS011;32620;51.704;7.822;2023-05-10T11:31:25;44.90;;;27.23;;
46415;SDS011;32620;51.704;7.822;2023-05-10T11:33:53;43.40;;;26.23;;
46415;SDS011;32620;51.704;7.822;2023-05-10T11:36:21;39.50;;;26.85;;
46415;SDS011;32620;51.704;7.822;2023-05-10T11:38:52;40.25;;;26.73;;
46415;SDS011;32620;51.704;7.822;2023-05-10T11:41:18;40.33;;;27.02;;
46415;SDS011;32620;51.704;7.822;2023-05-10T11:43:47;37.28;;;25.73;;
46415;SDS011;32620;51.704;7.822;2023-05-10T11:46:16;28.83;;;18.85;;
46415;SDS011;32620;51.704;7.822;2023-05-10T11:48:45;20.50;;;15.40;;
46415;SDS011;32620;51.704;7.822;2023-05-10T11:51:11;26.92;;;17.65;;
46415;SDS011;32620;51.704;7.822;2023-05-10T11:53:37;28.67;;;19.63;;
46415;SDS011;32620;51.704;7.822;2023-05-10T11:56:04;29.58;;;19.63;;
46415;SDS011;32620;51.704;7.822;2023-05-10T11:58:31;29.92;;;18.88;;
46415;SDS011;32620;51.704;7.822;2023-05-10T12:00:57;24.23;;;16.42;;
46415;SDS011;32620;51.704;7.822;2023-05-10T12:03:24;28.15;;;19.88;;
46415;SDS011;32620;51.704;7.822;2023-05-10T12:05:50;36.03;;;24.02;;
46415;SDS011;32620;51.704;7.822;2023-05-10T12:08:19;41.70;;;26.70;;
46415;SDS011;32620;51.704;7.822;2023-05-10T12:10:47;42.72;;;27.25;;
46415;SDS011;32620;51.704;7.822;2023-05-10T12:13:13;50.17;;;34.08;;
46415;SDS011;32620;51.704;7.822;2023-05-10T12:15:40;58.53;;;35.88;;
46415;SDS011;32620;51.704;7.822;2023-05-10T12:18:07;54.40;;;36.08;;
46415;SDS011;32620;51.704;7.822;2023-05-10T12:20:35;67.88;;;39.75;;
46415;SDS011;32620;51.704;7.822;2023-05-10T12:23:01;66.78;;;39.83;;
46415;SDS011;32620;51.704;7.822;2023-05-10T12:25:30;68.15;;;41.00;;
46415;SDS011;32620;51.704;7.822;2023-05-10T12:27:58;66.18;;;40.10;;
46415;SDS011;32620;51.704;7.822;2023-05-10T12:30:26;70.88;;;42.58;;
46415;SDS011;32620;51.704;7.822;2023-05-10T12:32:53;64.00;;;38.85;;
46415;SDS011;32620;51.704;7.822;2023-05-10T12:35:24;53.78;;;34.45;;
46415;SDS011;32620;51.704;7.822;2023-05-10T12:37:50;60.63;;;35.33;;
46415;SDS011;32620;51.704;7.822;2023-05-10T12:40:16;52.67;;;35.33;;
46415;SDS011;32620;51.704;7.822;2023-05-10T12:42:42;58.25;;;36.65;;
46415;SDS011;32620;51.704;7.822;2023-05-10T12:45:09;52.83;;;36.03;;
46415;SDS011;32620;51.704;7.822;2023-05-10T12:47:37;52.83;;;34.25;;
46415;SDS011;32620;51.704;7.822;2023-05-10T12:50:03;49.38;;;33.88;;
46415;SDS011;32620;51.704;7.822;2023-05-10T12:52:29;50.53;;;34.67;;
46415;SDS011;32620;51.704;7.822;2023-05-10T12:54:57;52.42;;;35.70;;
46415;SDS011;32620;51.704;7.822;2023-05-10T12:57:23;52.05;;;35.60;;
46415;SDS011;32620;51.704;7.822;2023-05-10T12:59:48;48.92;;;37.13;;
46415;SDS011;32620;51.704;7.822;2023-05-10T13:02:14;50.05;;;36.50;;
46415;SDS011;32620;51.704;7.822;2023-05-10T13:04:42;52.25;;;36.50;;
46415;SDS011;32620;51.704;7.822;2023-05-10T13:07:08;53.92;;;35.42;;
46415;SDS011;32620;51.704;7.822;2023-05-10T13:09:34;46.67;;;33.33;;
46415;SDS011;32620;51.704;7.822;2023-05-10T13:12:00;47.35;;;34.78;;
46415;SDS011;32620;51.704;7.822;2023-05-10T13:14:26;50.20;;;35.20;;
46415;SDS011;32620;51.704;7.822;2023-05-10T13:16:51;49.63;;;34.90;;
46415;SDS011;32620;51.704;7.822;2023-05-10T13:19:17;49.65;;;34.78;;
46415;SDS011;32620;51.704;7.822;2023-05-10T13:21:43;51.08;;;34.22;;
46415;SDS011;32620;51.704;7.822;2023-05-10T13:24:09;50.17;;;34.53;;
46415;SDS011;32620;51.704;7.822;2023-05-10T13:26:35;49.53;;;34.30;;
46415;SDS011;32620;51.704;7.822;2023-05-10T13:29:02;53.42;;;35.25;;
46415;SDS011;32620;51.704;7.822;2023-05-10T13:31:28;54.08;;;33.72;;
46415;SDS011;32620;51.704;7.822;2023-05-10T13:33:53;49.78;;;33.53;;
46415;SDS011;32620;51.704;7.822;2023-05-10T13:36:19;41.88;;;28.05;;
46415;SDS011;32620;51.704;7.822;2023-05-10T13:38:45;36.47;;;24.05;;
46415;SDS011;32620;51.704;7.822;2023-05-10T13:41:10;33.70;;;22.35;;
46415;SDS011;32620;51.704;7.822;2023-05-10T13:43:36;27.45;;;20.33;;
46415;SDS011;32620;51.704;7.822;2023-05-10T13:46:01;23.65;;;18.70;;
46415;SDS011;32620;51.704;7.822;2023-05-10T13:48:27;22.15;;;16.67;;
46415;SDS011;32620;51.704;7.822;2023-05-10T13:50:53;18.23;;;13.13;;
46415;SDS011;32620;51.704;7.822;2023-05-10T13:53:18;17.60;;;12.10;;
46415;SDS011;32620;51.704;7.822;2023-05-10T13:55:44;21.63;;;13.23;;
46415;SDS011;32620;51.704;7.822;2023-05-10T13:58:09;16.52;;;12.60;;
46415;SDS011;32620;51.704;7.822;2023-05-10T14:00:35;15.80;;;11.30;;
46415;SDS011;32620;51.704;7.822;2023-05-10T14:03:01;14.02;;;11.38;;
46415;SDS011;32620;51.704;7.822;2023-05-10T14:05:27;16.67;;;12.00;;
46415;SDS011;32620;51.704;7.822;2023-05-10T14:07:52;17.63;;;11.50;;
46415;SDS011;32620;51.704;7.822;2023-05-10T14:10:18;18.30;;;12.27;;
46415;SDS011;32620;51.704;7.822;2023-05-10T14:12:44;16.13;;;11.88;;
46415;SDS011;32620;51.704;7.822;2023-05-10T14:15:10;15.60;;;11.65;;
46415;SDS011;32620;51.704;7.822;2023-05-10T14:17:36;16.98;;;12.05;;
46415;SDS011;32620;51.704;7.822;2023-05-10T14:20:02;19.02;;;13.60;;
46415;SDS011;32620;51.704;7.822;2023-05-10T14:22:28;18.48;;;12.40;;
46415;SDS011;32620;51.704;7.822;2023-05-10T14:24:54;17.27;;;11.00;;
46415;SDS011;32620;51.704;7.822;2023-05-10T14:27:20;17.30;;;10.93;;
46415;SDS011;32620;51.704;7.822;2023-05-10T14:29:46;14.20;;;9.80;;
46415;SDS011;32620;51.704;7.822;2023-05-10T14:32:12;15.73;;;10.43;;
46415;SDS011;32620;51.704;7.822;2023-05-10T14:34:37;15.73;;;11.00;;
46415;SDS011;32620;51.704;7.822;2023-05-10T14:37:03;15.02;;;11.60;;
46415;SDS011;32620;51.704;7.822;2023-05-10T14:39:29;16.88;;;11.48;;
46415;SDS011;32620;51.704;7.822;2023-05-10T14:41:55;15.25;;;10.93;;
46415;SDS011;32620;51.704;7.822;2023-05-10T14:44:21;15.10;;;11.27;;